createdAt,value
2023-05-08T00:02:10.573Z,17.00
2023-05-08T00:04:38.796Z,17.00
2023-05-08T00:07:06.925Z,17.00
2023-05-08T00:09:35.091Z,17.00
2023-05-08T00:12:03.374Z,17.00
2023-05-08T00:14:32.940Z,17.00
2023-05-08T00:17:02.370Z,17.00
2023-05-08T00:19:30.664Z,17.00
2023-05-08T00:21:58.906Z,16.90
2023-05-08T00:24:26.996Z,17.00
2023-05-08T00:26:55.140Z,17.00
2023-05-08T00:29:23.247Z,17.00
2023-05-08T00:31:53.094Z,17.00
2023-05-08T00:34:21.387Z,17.00
2023-05-08T00:36:49.541Z,16.90
2023-05-08T00:39:17.695Z,16.90
2023-05-08T00:41:46.121Z,16.90
2023-05-08T00:44:14.487Z,16.90
2023-05-08T00:46:44.136Z,16.90
2023-05-08T00:49:14.639Z,16.90
2023-05-08T00:51:44.121Z,16.90
2023-05-08T00:54:12.507Z,17.00
2023-05-08T00:56:41.319Z,16.90
2023-05-08T00:59:13.266Z,16.90
2023-05-08T01:01:42.325Z,16.90
2023-05-08T01:04:11.461Z,17.00
2023-05-08T01:06:41.100Z,17.00
2023-05-08T01:09:09.294Z,17.00
2023-05-08T01:11:43.685Z,17.00
2023-05-08T01:14:20.547Z,17.00
2023-05-08T01:16:57.422Z,17.00
2023-05-08T01:20:05.051Z,16.90
2023-05-08T01:23:04.140Z,16.90
2023-05-08T01:26:05.435Z,16.90
2023-05-08T01:28:51.023Z,16.90
2023-05-08T01:31:26.308Z,16.90
2023-05-08T01:34:07.277Z,16.80
2023-05-08T01:36:41.089Z,16.80
2023-05-08T01:39:18.598Z,16.90
2023-05-08T01:41:56.071Z,16.90
2023-05-08T01:44:29.746Z,16.90
2023-05-08T01:46:59.629Z,16.90
2023-05-08T01:49:35.713Z,16.90
2023-05-08T01:52:07.254Z,16.90
2023-05-08T01:54:40.870Z,16.90
2023-05-08T01:57:10.828Z,16.90
2023-05-08T01:59:40.826Z,16.90
2023-05-08T02:02:12.265Z,16.90
2023-05-08T02:04:44.300Z,16.90
2023-05-08T02:07:12.780Z,16.90
2023-05-08T02:09:44.131Z,16.90
2023-05-08T02:12:15.023Z,16.90
2023-05-08T02:14:44.822Z,16.90
2023-05-08T02:17:17.439Z,16.90
2023-05-08T02:19:48.103Z,16.90
2023-05-08T02:22:18.022Z,16.90
2023-05-08T02:24:47.330Z,16.90
2023-05-08T02:27:17.286Z,16.90
2023-05-08T02:29:45.778Z,16.90
2023-05-08T02:32:16.903Z,16.90
2023-05-08T02:34:58.832Z,16.90
2023-05-08T02:37:32.239Z,16.90
2023-05-08T02:40:01.125Z,16.90
2023-05-08T02:42:29.553Z,16.90
2023-05-08T02:44:57.652Z,16.80
2023-05-08T02:47:30.706Z,16.90
2023-05-08T02:50:04.850Z,16.80
2023-05-08T02:52:39.598Z,16.90
2023-05-08T02:55:16.393Z,16.80
2023-05-08T02:57:51.783Z,16.80
2023-05-08T03:00:24.151Z,16.80
2023-05-08T03:02:55.822Z,16.80
2023-05-08T03:05:31.662Z,16.80
2023-05-08T03:08:04.761Z,16.80
2023-05-08T03:10:35.670Z,16.80
2023-05-08T03:13:06.989Z,16.80
2023-05-08T03:15:46.001Z,16.80
2023-05-08T03:18:20.343Z,16.80
2023-05-08T03:20:54.606Z,16.80
2023-05-08T03:23:26.935Z,16.80
2023-05-08T03:25:56.412Z,16.80
2023-05-08T03:28:25.398Z,16.70
2023-05-08T03:30:57.123Z,16.80
2023-05-08T03:33:26.968Z,16.80
2023-05-08T03:35:58.745Z,16.70
2023-05-08T03:38:27.646Z,16.70
2023-05-08T03:40:55.960Z,16.70
2023-05-08T03:43:24.878Z,16.70
2023-05-08T03:45:54.075Z,16.80
2023-05-08T03:48:23.923Z,16.80
2023-05-08T03:50:52.230Z,16.80
2023-05-08T03:53:23.194Z,16.80
2023-05-08T03:55:52.053Z,16.80
2023-05-08T03:58:25.949Z,16.70
2023-05-08T04:01:06.275Z,16.80
2023-05-08T04:03:48.279Z,16.70
2023-05-08T04:06:28.781Z,16.70
2023-05-08T04:09:09.381Z,16.70
2023-05-08T04:11:45.279Z,16.70
2023-05-08T04:14:20.248Z,16.70
2023-05-08T04:16:52.315Z,16.70
2023-05-08T04:19:25.290Z,16.70
2023-05-08T04:21:56.606Z,16.70
2023-05-08T04:24:28.985Z,16.70
2023-05-08T04:26:58.413Z,16.70
2023-05-08T04:29:26.762Z,16.60
2023-05-08T04:31:56.224Z,16.60
2023-05-08T04:34:25.093Z,16.60
2023-05-08T04:36:53.591Z,16.60
2023-05-08T04:39:22.461Z,16.60
2023-05-08T04:41:55.085Z,16.60
2023-05-08T04:44:23.989Z,16.60
2023-05-08T04:46:52.251Z,16.60
2023-05-08T04:49:20.295Z,16.60
2023-05-08T04:51:48.379Z,16.60
2023-05-08T04:54:16.759Z,16.60
2023-05-08T04:56:45.859Z,16.60
2023-05-08T04:59:16.217Z,16.70
2023-05-08T05:01:44.618Z,16.70
2023-05-08T05:04:12.866Z,16.70
2023-05-08T05:06:41.757Z,16.70
2023-05-08T05:09:10.396Z,16.70
2023-05-08T05:11:38.519Z,16.70
2023-05-08T05:14:07.258Z,16.70
2023-05-08T05:16:38.160Z,16.70
2023-05-08T05:19:07.099Z,16.80
2023-05-08T05:21:37.705Z,16.70
2023-05-08T05:24:07.378Z,16.70
2023-05-08T05:26:36.904Z,16.70
2023-05-08T05:29:05.943Z,16.70
2023-05-08T05:31:34.329Z,16.70
2023-05-08T05:34:04.261Z,16.60
2023-05-08T05:36:32.687Z,16.70
2023-05-08T05:39:01.143Z,16.70
2023-05-08T05:41:29.385Z,16.70
2023-05-08T05:43:57.562Z,16.60
2023-05-08T05:46:32.203Z,16.70
2023-05-08T05:49:04.179Z,16.70
2023-05-08T05:51:34.194Z,16.70
2023-05-08T05:54:02.596Z,16.70
2023-05-08T05:56:31.104Z,16.70
2023-05-08T05:58:59.508Z,16.70
2023-05-08T06:01:29.187Z,16.80
2023-05-08T06:03:58.041Z,16.80
2023-05-08T06:06:27.755Z,16.80
2023-05-08T06:08:56.109Z,16.80
2023-05-08T06:11:24.637Z,16.90
2023-05-08T06:13:53.038Z,16.80
2023-05-08T06:16:23.279Z,16.90
2023-05-08T06:18:51.520Z,16.90
2023-05-08T06:21:19.631Z,16.90
2023-05-08T06:23:49.669Z,16.90
2023-05-08T06:26:17.792Z,16.90
2023-05-08T06:28:45.920Z,16.90
2023-05-08T06:31:14.122Z,16.90
2023-05-08T06:33:42.223Z,16.90
2023-05-08T06:36:10.872Z,16.90
2023-05-08T06:38:39.018Z,17.00
2023-05-08T06:41:08.452Z,16.90
2023-05-08T06:43:36.554Z,17.00
2023-05-08T06:46:05.615Z,17.00
2023-05-08T06:48:33.804Z,17.00
2023-05-08T06:51:02.130Z,17.00
2023-05-08T06:53:30.268Z,17.00
2023-05-08T06:55:58.873Z,17.00
2023-05-08T06:58:28.376Z,17.10
2023-05-08T07:00:56.690Z,17.10
2023-05-08T07:03:24.911Z,17.10
2023-05-08T07:05:53.276Z,17.10
2023-05-08T07:08:21.360Z,17.10
2023-05-08T07:10:49.485Z,17.10
2023-05-08T07:13:21.655Z,17.10
2023-05-08T07:15:51.236Z,17.10
2023-05-08T07:18:19.432Z,17.20
2023-05-08T07:20:47.641Z,17.10
2023-05-08T07:23:15.761Z,17.20
2023-05-08T07:25:43.836Z,17.10
2023-05-08T07:28:11.934Z,17.20
2023-05-08T07:30:40.089Z,17.20
2023-05-08T07:33:09.680Z,17.20
2023-05-08T07:35:39.656Z,17.20
2023-05-08T07:38:07.797Z,17.20
2023-05-08T07:40:35.949Z,17.30
2023-05-08T07:43:04.144Z,17.30
2023-05-08T07:45:32.284Z,17.30
2023-05-08T07:48:00.492Z,17.30
2023-05-08T07:50:30.140Z,17.30
2023-05-08T07:52:58.348Z,17.30
2023-05-08T07:55:26.561Z,17.30
2023-05-08T07:57:54.716Z,17.30
2023-05-08T08:00:23.073Z,17.30
2023-05-08T08:02:51.317Z,17.30
2023-05-08T08:05:19.617Z,17.30
2023-05-08T08:07:49.382Z,17.30
2023-05-08T08:10:17.547Z,17.30
2023-05-08T08:12:45.697Z,17.30
2023-05-08T08:15:14.453Z,17.30
2023-05-08T08:17:42.736Z,17.30
2023-05-08T08:20:11.434Z,17.30
2023-05-08T08:22:40.012Z,17.40
2023-05-08T08:25:10.740Z,17.30
2023-05-08T08:27:39.113Z,17.30
2023-05-08T08:30:16.824Z,17.30
2023-05-08T08:32:46.442Z,17.40
2023-05-08T08:35:15.306Z,17.40
2023-05-08T08:37:44.215Z,17.30
2023-05-08T08:40:14.153Z,17.30
2023-05-08T08:42:42.397Z,17.30
2023-05-08T08:45:11.924Z,17.30
2023-05-08T08:47:42.214Z,17.30
2023-05-08T08:50:14.374Z,17.20
2023-05-08T08:52:48.825Z,17.20
2023-05-08T08:55:19.646Z,17.20
2023-05-08T08:57:56.287Z,17.20
2023-05-08T09:00:28.882Z,17.20
2023-05-08T09:02:57.246Z,17.20
2023-05-08T09:05:26.581Z,17.30
2023-05-08T09:07:56.590Z,17.30
2023-05-08T09:10:26.867Z,17.30
2023-05-08T09:12:55.064Z,17.30
2023-05-08T09:15:23.208Z,17.30
2023-05-08T09:17:51.411Z,17.30
2023-05-08T09:20:20.922Z,17.30
2023-05-08T09:22:50.395Z,17.30
2023-05-08T09:25:19.169Z,17.30
2023-05-08T09:27:48.680Z,17.30
2023-05-08T09:30:16.925Z,17.30
2023-05-08T09:32:46.023Z,17.30
2023-05-08T09:35:14.645Z,17.30
2023-05-08T09:37:44.203Z,17.30
2023-05-08T09:40:17.433Z,17.30
2023-05-08T09:42:46.351Z,17.40
2023-05-08T09:45:28.204Z,17.30
2023-05-08T09:47:56.526Z,17.30
2023-05-08T09:50:25.292Z,17.30
2023-05-08T09:52:53.604Z,17.30
2023-05-08T09:55:21.940Z,17.30
2023-05-08T09:57:56.042Z,17.40
2023-05-08T10:00:26.780Z,17.40
2023-05-08T10:02:57.784Z,17.40
2023-05-08T10:05:29.895Z,17.40
2023-05-08T10:07:58.931Z,17.50
2023-05-08T10:10:28.022Z,17.50
2023-05-08T10:12:57.330Z,17.50
2023-05-08T10:15:29.905Z,17.50
2023-05-08T10:18:05.070Z,17.60
2023-05-08T10:20:35.634Z,17.60
2023-05-08T10:23:05.543Z,17.60
2023-05-08T10:25:36.441Z,17.70
2023-05-08T10:28:14.512Z,17.70
2023-05-08T10:30:48.758Z,17.70
2023-05-08T10:33:21.267Z,17.70
2023-05-08T10:35:49.799Z,17.70
2023-05-08T10:38:18.467Z,17.80
2023-05-08T10:40:47.322Z,17.80
2023-05-08T10:43:16.904Z,17.80
2023-05-08T10:45:46.964Z,17.80
2023-05-08T10:48:26.926Z,17.90
2023-05-08T10:51:02.268Z,17.80
2023-05-08T10:53:38.282Z,17.90
2023-05-08T10:56:06.886Z,17.90
2023-05-08T10:58:37.212Z,18.00
2023-05-08T11:01:17.578Z,18.10
2023-05-08T11:03:48.281Z,18.10
2023-05-08T11:06:18.122Z,18.20
2023-05-08T11:08:54.553Z,18.20
2023-05-08T11:11:28.712Z,18.20
2023-05-08T11:14:01.310Z,18.20
2023-05-08T11:17:24.109Z,18.30
2023-05-08T11:19:58.185Z,18.50
2023-05-08T11:22:29.318Z,18.50
2023-05-08T11:24:59.768Z,18.50
2023-05-08T11:28:04.951Z,18.60
2023-05-08T11:30:38.428Z,18.60
2023-05-08T11:33:18.613Z,18.70
2023-05-08T11:35:52.688Z,18.80
2023-05-08T11:38:36.605Z,18.90
2023-05-08T11:41:06.564Z,19.00
2023-05-08T11:44:14.875Z,19.00
2023-05-08T11:46:49.308Z,19.10
2023-05-08T11:49:24.729Z,19.10
2023-05-08T11:51:58.746Z,19.10
2023-05-08T11:54:29.843Z,19.00
2023-05-08T11:56:59.467Z,19.10
2023-05-08T11:59:28.055Z,19.10
2023-05-08T12:02:07.767Z,19.00
2023-05-08T12:04:47.181Z,19.10
2023-05-08T12:07:16.159Z,19.00
2023-05-08T12:09:44.599Z,19.00
2023-05-08T12:12:12.717Z,19.00
2023-05-08T12:14:40.886Z,19.00
2023-05-08T12:17:09.048Z,19.10
2023-05-08T12:19:37.388Z,19.10
2023-05-08T12:22:07.044Z,19.10
2023-05-08T12:24:35.161Z,19.10
2023-05-08T12:27:03.416Z,19.10
2023-05-08T12:29:31.593Z,19.00
2023-05-08T12:32:00.061Z,19.00
2023-05-08T12:34:28.839Z,19.00
2023-05-08T12:37:07.673Z,18.90
2023-05-08T12:39:38.650Z,18.90
2023-05-08T12:42:06.834Z,18.90
2023-05-08T12:44:35.288Z,18.90
2023-05-08T12:47:03.514Z,18.90
2023-05-08T12:49:33.094Z,18.80
2023-05-08T12:52:05.384Z,18.80
2023-05-08T12:54:36.647Z,18.90
2023-05-08T12:57:11.664Z,18.90
2023-05-08T12:59:40.465Z,18.90
2023-05-08T13:02:14.525Z,18.90
2023-05-08T13:04:43.066Z,18.90
2023-05-08T13:07:11.607Z,19.00
2023-05-08T13:09:41.461Z,19.00
2023-05-08T13:12:09.787Z,19.00
2023-05-08T13:14:38.000Z,19.10
2023-05-08T13:17:06.550Z,19.20
2023-05-08T13:19:35.144Z,19.30
2023-05-08T13:22:03.316Z,19.40
2023-05-08T13:24:31.413Z,19.50
2023-05-08T13:27:00.884Z,19.60
2023-05-08T13:29:28.962Z,19.60
2023-05-08T13:31:57.164Z,19.90
2023-05-08T13:34:25.548Z,20.00
2023-05-08T13:36:53.776Z,20.00
2023-05-08T13:39:21.930Z,19.90
2023-05-08T13:41:49.999Z,19.80
2023-05-08T13:44:19.836Z,19.90
2023-05-08T13:46:47.991Z,19.80
2023-05-08T13:49:16.291Z,19.80
2023-05-08T13:51:47.181Z,19.80
2023-05-08T13:54:17.759Z,19.70
2023-05-08T13:56:45.902Z,19.70
2023-05-08T13:59:13.971Z,19.60
2023-05-08T14:01:43.557Z,19.60
2023-05-08T14:04:11.975Z,19.50
2023-05-08T14:06:40.224Z,19.40
2023-05-08T14:09:08.353Z,19.40
2023-05-08T14:11:36.508Z,19.40
2023-05-08T14:14:05.001Z,19.30
2023-05-08T14:16:33.237Z,19.20
2023-05-08T14:19:03.026Z,19.20
2023-05-08T14:21:31.673Z,19.10
2023-05-08T14:23:59.790Z,19.10
2023-05-08T14:26:27.874Z,19.10
2023-05-08T14:28:55.978Z,19.10
2023-05-08T14:31:24.022Z,19.10
2023-05-08T14:33:52.304Z,19.10
2023-05-08T14:36:21.787Z,19.10
2023-05-08T14:38:49.988Z,19.10
2023-05-08T14:41:18.138Z,19.10
2023-05-08T14:43:47.021Z,19.10
2023-05-08T14:46:15.145Z,19.10
2023-05-08T14:48:43.782Z,19.10
2023-05-08T14:51:14.298Z,19.10
2023-05-08T14:53:44.006Z,19.20
2023-05-08T14:56:12.485Z,19.20
2023-05-08T14:58:40.704Z,19.20
2023-05-08T15:01:08.895Z,19.20
2023-05-08T15:03:37.985Z,19.20
2023-05-08T15:06:07.563Z,19.40
2023-05-08T15:08:35.746Z,19.40
2023-05-08T15:11:07.135Z,19.40
2023-05-08T15:13:35.726Z,19.30
2023-05-08T15:16:09.141Z,19.30
2023-05-08T15:18:38.598Z,19.30
2023-05-08T15:21:09.093Z,19.40
2023-05-08T15:23:37.553Z,19.40
2023-05-08T15:26:08.364Z,19.50
2023-05-08T15:28:36.649Z,19.70
2023-05-08T15:31:05.895Z,19.60
2023-05-08T15:33:34.106Z,19.60
2023-05-08T15:36:02.589Z,19.60
2023-05-08T15:38:30.835Z,19.60
2023-05-08T15:40:59.101Z,19.60
2023-05-08T15:43:28.623Z,19.60
2023-05-08T15:45:56.792Z,19.80
2023-05-08T15:48:25.492Z,19.80
2023-05-08T15:50:53.959Z,19.80
2023-05-08T15:53:22.187Z,19.80
2023-05-08T15:55:50.409Z,19.70
2023-05-08T15:58:18.641Z,19.60
2023-05-08T16:00:48.381Z,19.60
2023-05-08T16:03:16.615Z,19.60
2023-05-08T16:05:45.141Z,19.50
2023-05-08T16:08:13.955Z,19.60
2023-05-08T16:10:42.872Z,19.50
2023-05-08T16:13:11.119Z,19.50
2023-05-08T16:15:39.370Z,19.50
2023-05-08T16:18:09.275Z,19.50
2023-05-08T16:20:37.421Z,19.40
2023-05-08T16:23:05.579Z,19.40
2023-05-08T16:25:33.973Z,19.40
2023-05-08T16:28:02.110Z,19.50
2023-05-08T16:30:30.738Z,19.50
2023-05-08T16:32:58.983Z,19.50
2023-05-08T16:35:29.624Z,19.50
2023-05-08T16:37:58.195Z,19.50
2023-05-08T16:40:26.483Z,19.40
2023-05-08T16:42:54.817Z,19.40
2023-05-08T16:45:23.270Z,19.40
2023-05-08T16:47:51.525Z,19.40
2023-05-08T16:50:19.952Z,19.40
2023-05-08T16:52:49.504Z,19.30
2023-05-08T16:55:18.016Z,19.30
2023-05-08T16:57:46.122Z,19.30
2023-05-08T17:00:15.237Z,19.30
2023-05-08T17:02:43.658Z,19.30
2023-05-08T17:05:12.048Z,19.30
2023-05-08T17:07:40.730Z,19.30
2023-05-08T17:10:12.035Z,19.30
2023-05-08T17:12:40.305Z,19.30
2023-05-08T17:15:09.347Z,19.30
2023-05-08T17:17:37.575Z,19.30
2023-05-08T17:20:06.729Z,19.40
2023-05-08T17:22:35.054Z,19.40
2023-05-08T17:25:03.619Z,19.50
2023-05-08T17:27:34.898Z,19.60
2023-05-08T17:30:03.777Z,19.60
2023-05-08T17:32:31.923Z,19.70
2023-05-08T17:35:00.067Z,19.80
2023-05-08T17:37:28.376Z,19.80
2023-05-08T17:39:56.584Z,19.80
2023-05-08T17:42:24.857Z,19.90
2023-05-08T17:44:54.495Z,19.90
2023-05-08T17:47:22.688Z,20.00
2023-05-08T17:49:50.983Z,20.00
2023-05-08T17:52:19.178Z,20.00
2023-05-08T17:54:47.413Z,20.10
2023-05-08T17:57:15.559Z,20.10
2023-05-08T17:59:44.006Z,20.10
2023-05-08T18:02:13.663Z,20.10
2023-05-08T18:04:41.799Z,20.10
2023-05-08T18:07:10.007Z,20.10
2023-05-08T18:09:38.089Z,20.10
2023-05-08T18:12:07.826Z,20.10
2023-05-08T18:14:36.037Z,20.10
2023-05-08T18:17:04.217Z,20.10
2023-05-08T18:19:34.117Z,20.10
2023-05-08T18:22:02.373Z,20.10
2023-05-08T18:24:30.920Z,20.00
2023-05-08T18:26:59.265Z,20.10
2023-05-08T18:29:27.488Z,20.00
2023-05-08T18:31:55.609Z,20.00
2023-05-08T18:34:23.859Z,20.00
2023-05-08T18:36:54.954Z,20.00
2023-05-08T18:39:24.751Z,20.00
2023-05-08T18:41:52.950Z,19.90
2023-05-08T18:44:21.077Z,19.90
2023-05-08T18:46:49.249Z,19.80
2023-05-08T18:49:17.629Z,19.80
2023-05-08T18:51:46.108Z,19.80
2023-05-08T18:54:15.602Z,19.70
2023-05-08T18:56:43.775Z,19.70
2023-05-08T18:59:11.945Z,19.70
2023-05-08T19:01:40.098Z,19.70
2023-05-08T19:04:08.331Z,19.60
2023-05-08T19:06:36.500Z,19.70
2023-05-08T19:09:05.068Z,19.60
2023-05-08T19:11:34.554Z,19.60
2023-05-08T19:14:02.785Z,19.60
2023-05-08T19:16:31.057Z,19.60
2023-05-08T19:18:59.329Z,19.60
2023-05-08T19:21:27.562Z,19.60
2023-05-08T19:23:55.809Z,19.60
2023-05-08T19:26:23.935Z,19.40
2023-05-08T19:28:53.425Z,19.40
2023-05-08T19:31:21.659Z,19.40
2023-05-08T19:33:50.087Z,19.30
2023-05-08T19:36:18.504Z,19.30
2023-05-08T19:38:46.781Z,19.20
2023-05-08T19:41:14.916Z,19.20
2023-05-08T19:43:43.090Z,19.10
2023-05-08T19:46:12.766Z,19.00
2023-05-08T19:48:41.041Z,19.00
2023-05-08T19:51:11.585Z,19.00
2023-05-08T19:53:39.953Z,19.00
2023-05-08T19:56:08.129Z,19.00
2023-05-08T19:58:36.288Z,18.90
2023-05-08T20:01:04.642Z,18.90
2023-05-08T20:03:34.403Z,18.90
2023-05-08T20:06:02.703Z,18.90
2023-05-08T20:08:31.019Z,18.80
2023-05-08T20:11:02.321Z,18.80
2023-05-08T20:13:30.789Z,18.80
2023-05-08T20:15:59.397Z,18.80
2023-05-08T20:18:27.554Z,18.80
2023-05-08T20:20:57.182Z,18.80
2023-05-08T20:23:25.385Z,18.70
2023-05-08T20:25:54.274Z,18.70
2023-05-08T20:28:26.041Z,18.70
2023-05-08T20:30:54.578Z,18.70
2023-05-08T20:33:22.757Z,18.60
2023-05-08T20:35:50.960Z,18.50
2023-05-08T20:38:20.895Z,18.60
2023-05-08T20:40:49.129Z,18.60
2023-05-08T20:43:17.645Z,18.50
2023-05-08T20:45:45.893Z,18.50
2023-05-08T20:48:14.084Z,18.50
2023-05-08T20:50:42.217Z,18.50
2023-05-08T20:53:10.378Z,18.50
2023-05-08T20:55:40.005Z,18.50
2023-05-08T20:58:09.279Z,18.50
2023-05-08T21:00:37.674Z,18.40
2023-05-08T21:03:06.282Z,18.40
2023-05-08T21:05:34.383Z,18.40
2023-05-08T21:08:03.597Z,18.40
2023-05-08T21:10:31.927Z,18.40
2023-05-08T21:13:01.501Z,18.30
2023-05-08T21:15:29.721Z,18.40
2023-05-08T21:17:58.118Z,18.30
2023-05-08T21:20:26.292Z,18.40
2023-05-08T21:22:54.412Z,18.30
2023-05-08T21:25:22.666Z,18.30
2023-05-08T21:27:50.969Z,18.30
2023-05-08T21:30:21.486Z,18.30
2023-05-08T21:32:49.754Z,18.30
2023-05-08T21:35:18.097Z,18.30
2023-05-08T21:37:46.340Z,18.40
2023-05-08T21:40:14.701Z,18.40
2023-05-08T21:42:42.961Z,18.40
2023-05-08T21:45:12.434Z,18.40
2023-05-08T21:47:42.329Z,18.40
2023-05-08T21:50:11.141Z,18.40
2023-05-08T21:52:39.258Z,18.40
2023-05-08T21:55:08.991Z,18.40
2023-05-08T21:57:37.309Z,18.40
2023-05-08T22:00:06.298Z,18.40
2023-05-08T22:02:34.585Z,18.40
2023-05-08T22:05:04.536Z,18.40
2023-05-08T22:07:32.800Z,18.40
2023-05-08T22:10:00.885Z,18.40
2023-05-08T22:12:29.145Z,18.40
2023-05-08T22:14:57.545Z,18.40
2023-05-08T22:17:26.331Z,18.30
2023-05-08T22:19:54.523Z,18.30
2023-05-08T22:22:24.060Z,18.30
2023-05-08T22:24:52.681Z,18.30
2023-05-08T22:27:21.170Z,18.30
2023-05-08T22:29:49.388Z,18.30
2023-05-08T22:32:18.125Z,18.30
2023-05-08T22:34:46.621Z,18.30
2023-05-08T22:37:14.826Z,18.20
2023-05-08T22:39:44.586Z,18.30
2023-05-08T22:42:12.869Z,18.30
2023-05-08T22:44:41.145Z,18.30
2023-05-08T22:47:09.695Z,18.30
2023-05-08T22:49:39.020Z,18.20
2023-05-08T22:52:07.804Z,18.30
2023-05-08T22:54:36.166Z,18.30
2023-05-08T22:57:05.856Z,18.30
2023-05-08T22:59:34.019Z,18.20
2023-05-08T23:02:02.243Z,18.20
2023-05-08T23:04:30.633Z,18.20
2023-05-08T23:06:58.839Z,18.20
2023-05-08T23:09:27.029Z,18.10
2023-05-08T23:11:55.205Z,18.10
2023-05-08T23:14:24.740Z,18.20
2023-05-08T23:16:53.114Z,18.20
2023-05-08T23:19:21.258Z,18.20
2023-05-08T23:21:49.749Z,18.20
2023-05-08T23:24:19.856Z,18.20
2023-05-08T23:26:49.738Z,18.10
2023-05-08T23:29:17.969Z,18.10
2023-05-08T23:31:47.622Z,18.10
2023-05-08T23:34:15.761Z,18.00
2023-05-08T23:36:44.043Z,18.00
2023-05-08T23:39:12.500Z,18.00
2023-05-08T23:41:40.827Z,18.00
2023-05-08T23:44:08.923Z,18.00
2023-05-08T23:46:37.024Z,18.00
2023-05-08T23:49:07.001Z,18.00
2023-05-08T23:51:35.222Z,18.00
2023-05-08T23:54:03.356Z,18.00
2023-05-08T23:56:31.798Z,18.00
2023-05-08T23:58:59.922Z,18.00
